Time;durP1;ratioP1;P1;durP2;ratioP2;P2;SDS_P1;SDS_P2;PMS_P1;PMS_P2;Temp;Humidity;BMP_temperature;BMP_pressure;BME280_temperature;BME280_humidity;BME280_pressure;Samples;Min_cycle;Max_cycle;Signal;HPM_P1;HPM_P2
2022/10/22 00:00:41;;;;;;;;;;;;;;;24.06;46.53;94130.44;5063365;28;9476;-60
2022/10/22 00:03:37;;;;;;;;;;;;;;;24.06;46.89;94132.44;5060925;28;7285;-60
2022/10/22 00:06:18;;;;;;;;;;;;;;;24.06;46.68;94126.94;4988667;28;7249;-60
2022/10/22 00:08:54;;;;;;;;;;;;;;;24.05;46.46;94126.22;5006764;28;9166;-60
2022/10/22 00:11:21;;;;;;;;;;;;;;;24.03;46.56;94131.44;5012060;28;7164;-61
2022/10/22 00:13:59;;;;;;;;;;;;;;;24.03;46.78;94131.44;4994331;28;7388;-60
2022/10/22 00:16:25;;;;;;;;;;;;;;;23.99;46.72;94131.69;5010813;28;9183;-60
2022/10/22 00:18:53;;;;;;;;;;;;;;;23.99;46.62;94134.44;4992763;28;7405;-60
2022/10/22 00:21:22;;;;;;;;;;;;;;;24.01;46.53;94144.94;4993602;28;7226;-60
2022/10/22 00:23:50;;;;;;;;;;;;;;;24.01;46.93;94141.44;4993926;28;7238;-60
2022/10/22 00:26:18;;;;;;;;;;;;;;;23.98;47.00;94135.72;5000991;28;7161;-60
2022/10/22 00:28:47;;;;;;;;;;;;;;;23.98;46.47;94132.22;4994035;28;6954;-60
2022/10/22 00:31:33;;;;;;;;;;;;;;;24.01;46.74;94142.19;5008470;28;7329;-60
2022/10/22 00:34:10;;;;;;;;;;;;;;;23.99;46.70;94141.94;4987916;28;7252;-60
2022/10/22 00:36:48;;;;;;;;;;;;;;;23.98;47.19;94143.19;4990725;28;7076;-60
2022/10/22 00:39:18;;;;;;;;;;;;;;;23.96;46.90;94154.72;5004975;28;7735;-60
2022/10/22 00:41:47;;;;;;;;;;;;;;;23.94;47.04;94153.72;5011331;28;7409;-60
2022/10/22 00:47:42;;;;;;;;;;;;;;;23.93;47.13;94176.94;5065077;28;7269;-60
2022/10/22 00:50:59;;;;;;;;;;;;;;;23.96;46.57;94178.69;5054334;28;7387;-60
2022/10/22 00:53:38;;;;;;;;;;;;;;;23.94;47.25;94178.44;4974112;28;7125;-60
2022/10/22 00:56:08;;;;;;;;;;;;;;;23.93;47.57;94190.66;4976116;28;7884;-60
2022/10/22 00:58:58;;;;;;;;;;;;;;;23.92;46.96;94189.19;4972048;28;7585;-60
2022/10/22 01:01:33;;;;;;;;;;;;;;;23.92;47.58;94194.69;4981164;28;7452;-60
2022/10/22 01:04:08;;;;;;;;;;;;;;;23.89;46.86;94182.69;4990585;28;8552;-60
2022/10/22 01:06:37;;;;;;;;;;;;;;;23.90;46.96;94191.69;4969518;28;7262;-60
2022/10/22 01:09:31;;;;;;;;;;;;;;;23.90;47.35;94192.41;4972768;28;6987;-60
2022/10/22 01:12:14;;;;;;;;;;;;;;;23.90;47.44;94195.16;4986712;28;7246;-60
2022/10/22 01:14:59;;;;;;;;;;;;;;;23.89;47.05;94188.19;4999033;28;7845;-60
2022/10/22 01:17:45;;;;;;;;;;;;;;;23.88;47.04;94180.47;4977809;28;9656;-60
2022/10/22 01:20:47;;;;;;;;;;;;;;;23.85;47.21;94182.22;4976108;28;7193;-60
2022/10/22 01:23:42;;;;;;;;;;;;;;;23.84;47.11;94172.47;4989380;28;7342;-60
2022/10/22 01:26:31;;;;;;;;;;;;;;;23.86;47.33;94180.19;4972576;28;7017;-60
2022/10/22 01:29:07;;;;;;;;;;;;;;;23.87;47.37;94170.72;5000327;28;7323;-60
2022/10/22 01:31:46;;;;;;;;;;;;;;;23.86;46.99;94174.69;5073868;28;7837;-60
2022/10/22 01:34:21;;;;;;;;;;;;;;;23.85;47.37;94165.72;5066059;28;7276;-60
2022/10/22 01:37:11;;;;;;;;;;;;;;;23.85;46.88;94162.22;5054480;28;7216;-60
2022/10/22 01:39:50;;;;;;;;;;;;;;;23.83;47.00;94154.50;5068434;28;7092;-60
2022/10/22 01:42:18;;;;;;;;;;;;;;;23.85;47.45;94151.25;5064493;28;7209;-61
2022/10/22 01:44:45;;;;;;;;;;;;;;;23.83;47.23;94156.50;5064790;28;7206;-60
2022/10/22 01:50:36;;;;;;;;;;;;;;;23.84;47.45;94133.25;5068063;28;7159;-60
2022/10/22 01:53:56;;;;;;;;;;;;;;;23.85;47.08;94141.00;5081571;28;7237;-60
2022/10/22 01:56:59;;;;;;;;;;;;;;;23.83;46.86;94146.25;4957995;28;8707;-60
2022/10/22 01:59:56;;;;;;;;;;;;;;;23.80;47.03;94147.25;4974669;28;7208;-60
2022/10/22 02:02:40;;;;;;;;;;;;;;;23.78;47.66;94136.03;4948542;28;7020;-60
2022/10/22 02:05:21;;;;;;;;;;;;;;;23.80;47.50;94130.78;4980345;28;7430;-60
2022/10/22 02:07:54;;;;;;;;;;;;;;;23.80;47.79;94143.75;4976850;28;7276;-60
2022/10/22 02:10:31;;;;;;;;;;;;;;;23.82;47.57;94144.75;4951792;28;7004;-60
2022/10/22 02:13:01;;;;;;;;;;;;;;;23.81;47.58;94140.53;4961613;28;7228;-60
2022/10/22 02:15:37;;;;;;;;;;;;;;;23.81;47.36;94140.53;4958721;28;7538;-61
2022/10/22 02:18:08;;;;;;;;;;;;;;;23.81;47.11;94142.53;4964891;28;7365;-61
2022/10/22 02:20:37;;;;;;;;;;;;;;;23.79;47.61;94143.00;4959160;28;7262;-61
2022/10/22 02:23:06;;;;;;;;;;;;;;;23.79;47.28;94148.50;4973277;28;8809;-61
2022/10/22 02:25:39;;;;;;;;;;;;;;;23.80;47.16;94155.50;4957423;28;7262;-61
2022/10/22 02:28:24;;;;;;;;;;;;;;;23.80;47.24;94154.75;4964792;28;6998;-61
2022/10/22 02:31:14;;;;;;;;;;;;;;;23.81;47.56;94148.78;4956341;28;6982;-61
2022/10/22 02:33:47;;;;;;;;;;;;;;;23.79;47.66;94150.53;5025164;28;8226;-61
2022/10/22 02:36:22;;;;;;;;;;;;;;;23.79;47.18;94145.03;5060973;28;7382;-61
2022/10/22 02:38:54;;;;;;;;;;;;;;;23.78;47.21;94135.28;5054740;28;7317;-61
2022/10/22 02:41:36;;;;;;;;;;;;;;;23.78;46.91;94141.53;5069810;28;7299;-61
2022/10/22 02:44:47;;;;;;;;;;;;;;;23.79;47.12;94148.50;5056647;28;7240;-61
2022/10/22 02:47:25;;;;;;;;;;;;;;;23.80;47.55;94154.75;5015363;28;9585;-61
2022/10/22 02:50:22;;;;;;;;;;;;;;;23.79;47.51;94153.28;5004298;28;9038;-61
2022/10/22 02:52:48;;;;;;;;;;;;;;;23.77;46.83;94166.75;5039760;28;9690;-60
2022/10/22 02:55:14;;;;;;;;;;;;;;;23.77;47.58;94167.47;5015100;28;8678;-61
2022/10/22 02:57:49;;;;;;;;;;;;;;;23.77;47.60;94172.25;4997202;28;7183;-61
2022/10/22 03:00:17;;;;;;;;;;;;;;;23.76;47.08;94177.00;5029822;28;7275;-61
2022/10/22 03:02:43;;;;;;;;;;;;;;;23.76;47.37;94187.97;5038561;28;9259;-61
2022/10/22 03:05:19;;;;;;;;;;;;;;;23.76;47.79;94187.22;5006484;28;7238;-61
2022/10/22 03:07:45;;;;;;;;;;;;;;;23.75;47.19;94186.47;5014026;28;9145;-61
2022/10/22 03:10:21;;;;;;;;;;;;;;;23.75;47.54;94185.75;5005325;28;7393;-61
2022/10/22 03:12:52;;;;;;;;;;;;;;;23.76;47.23;94192.72;5037789;28;6915;-61
2022/10/22 03:15:30;;;;;;;;;;;;;;;23.74;47.31;94197.97;5014726;28;8677;-61
2022/10/22 03:17:56;;;;;;;;;;;;;;;23.75;47.69;94191.22;5030963;28;10152;-61
2022/10/22 03:20:22;;;;;;;;;;;;;;;23.76;47.57;94192.72;5025337;28;7504;-61
2022/10/22 03:22:48;;;;;;;;;;;;;;;23.74;47.33;94197.97;5024302;28;8840;-61
2022/10/22 03:25:21;;;;;;;;;;;;;;;23.74;47.09;94198.72;5062281;28;6979;-61
2022/10/22 03:27:50;;;;;;;;;;;;;;;23.77;46.95;94188.72;5065084;28;7310;-61
2022/10/22 03:30:21;;;;;;;;;;;;;;;23.74;47.42;94173.25;5060967;28;7462;-61
2022/10/22 03:32:49;;;;;;;;;;;;;;;23.77;47.39;94177.75;5053237;28;7429;-61
2022/10/22 03:35:15;;;;;;;;;;;;;;;23.75;47.00;94174.75;5062984;28;7282;-61
2022/10/22 03:37:41;;;;;;;;;;;;;;;23.77;47.83;94183.97;5063823;28;9418;-61
2022/10/22 03:40:10;;;;;;;;;;;;;;;23.77;47.30;94183.97;5052991;28;7246;-61
2022/10/22 03:42:41;;;;;;;;;;;;;;;23.77;47.41;94183.97;5039829;28;7112;-61
2022/10/22 03:45:20;;;;;;;;;;;;;;;23.77;46.89;94177.75;5054469;28;7219;-61
2022/10/22 03:47:49;;;;;;;;;;;;;;;23.78;47.36;94181.97;5081892;28;7028;-61
2022/10/22 03:50:16;;;;;;;;;;;;;;;23.75;47.21;94170.00;5056170;28;7245;-61
2022/10/22 03:52:44;;;;;;;;;;;;;;;23.77;47.20;94172.25;5055005;28;7027;-61
2022/10/22 03:55:18;;;;;;;;;;;;;;;23.75;47.63;94174.75;5074666;28;7448;-61
2022/10/22 03:57:44;;;;;;;;;;;;;;;23.73;47.90;94183.47;5039496;28;7107;-61
2022/10/22 04:00:21;;;;;;;;;;;;;;;23.73;47.23;94190.97;5072866;28;7386;-61
2022/10/22 04:02:52;;;;;;;;;;;;;;;23.74;47.00;94181.47;5087942;28;7240;-61
2022/10/22 04:05:19;;;;;;;;;;;;;;;23.75;47.06;94180.97;5060049;28;7106;-61
2022/10/22 04:07:45;;;;;;;;;;;;;;;23.74;47.83;94179.50;5050835;28;7173;-61
2022/10/22 04:10:18;;;;;;;;;;;;;;;23.73;47.18;94188.22;5061081;28;7203;-61
2022/10/22 04:12:56;;;;;;;;;;;;;;;23.74;47.06;94182.25;5066412;28;7579;-61
2022/10/22 04:15:31;;;;;;;;;;;;;;;23.74;47.49;94184.97;5050670;28;9909;-61
2022/10/22 04:18:07;;;;;;;;;;;;;;;23.75;47.63;94202.22;5065963;28;7272;-61
2022/10/22 04:20:36;;;;;;;;;;;;;;;23.74;47.59;94200.72;5067937;28;7238;-61
2022/10/22 04:23:01;;;;;;;;;;;;;;;23.73;47.54;94188.97;5067118;28;6931;-61
2022/10/22 04:25:29;;;;;;;;;;;;;;;23.72;47.41;94189.47;5068281;28;6998;-61
2022/10/22 04:28:08;;;;;;;;;;;;;;;23.72;47.87;94197.72;5050980;28;8436;-61
2022/10/22 04:30:42;;;;;;;;;;;;;;;23.72;47.85;94197.72;5078552;28;7339;-61
2022/10/22 04:33:08;;;;;;;;;;;;;;;23.70;47.45;94200.97;5060515;28;9117;-61
2022/10/22 04:35:46;;;;;;;;;;;;;;;23.70;47.33;94205.72;5061092;28;7473;-61
2022/10/22 04:38:12;;;;;;;;;;;;;;;23.71;47.68;94213.44;5060469;28;7344;-61
2022/10/22 04:40:39;;;;;;;;;;;;;;;23.72;47.01;94223.19;5056866;28;9444;-61
2022/10/22 04:43:06;;;;;;;;;;;;;;;23.72;47.07;94220.44;5042807;28;7335;-61
2022/10/22 04:45:34;;;;;;;;;;;;;;;23.71;47.63;94215.44;5068288;28;7266;-61
2022/10/22 04:48:07;;;;;;;;;;;;;;;23.70;47.34;94213.94;5069543;28;7364;-61
2022/10/22 04:50:36;;;;;;;;;;;;;;;23.70;47.37;94230.44;5066678;28;7715;-61
2022/10/22 04:53:06;;;;;;;;;;;;;;;23.72;47.45;94238.91;5058781;28;7004;-61
2022/10/22 04:55:34;;;;;;;;;;;;;;;23.71;47.38;94224.41;5075677;28;7446;-61
2022/10/22 04:58:11;;;;;;;;;;;;;;;23.71;47.31;94220.91;5058437;28;10080;-61
2022/10/22 05:00:40;;;;;;;;;;;;;;;23.71;47.15;94234.66;5062918;28;8648;-61
2022/10/22 05:03:14;;;;;;;;;;;;;;;23.72;47.54;94238.91;5066526;28;7467;-61
2022/10/22 05:05:49;;;;;;;;;;;;;;;23.71;47.41;94234.66;5082131;28;8204;-61
2022/10/22 05:08:18;;;;;;;;;;;;;;;23.71;47.56;94231.91;5076832;28;7317;-61
2022/10/22 05:10:45;;;;;;;;;;;;;;;23.71;47.51;94232.66;5074156;28;6924;-61
2022/10/22 05:13:23;;;;;;;;;;;;;;;23.73;47.55;94232.16;5089459;28;7903;-61
2022/10/22 05:15:51;;;;;;;;;;;;;;;23.68;47.92;94241.16;5087874;28;9014;-61
2022/10/22 05:18:26;;;;;;;;;;;;;;;23.67;47.97;94250.63;5084002;28;7918;-61
2022/10/22 05:20:54;;;;;;;;;;;;;;;23.64;48.04;94246.16;5071411;28;7017;-61
2022/10/22 05:23:25;;;;;;;;;;;;;;;23.64;47.82;94246.88;5066019;28;7635;-61
2022/10/22 05:25:51;;;;;;;;;;;;;;;23.66;47.93;94251.91;5068268;28;7186;-61
2022/10/22 05:28:23;;;;;;;;;;;;;;;23.67;48.13;94262.38;5073698;28;7339;-61
2022/10/22 05:30:55;;;;;;;;;;;;;;;23.71;48.15;94256.63;5073154;28;7099;-61
2022/10/22 05:33:24;;;;;;;;;;;;;;;23.76;48.14;94266.84;5068845;28;7326;-61
2022/10/22 05:35:51;;;;;;;;;;;;;;;23.80;47.70;94267.34;5067879;28;8714;-61
2022/10/22 05:38:36;;;;;;;;;;;;;;;23.84;47.31;94268.59;5071371;28;9115;-61
2022/10/22 05:41:08;;;;;;;;;;;;;;;23.88;47.77;94276.59;5083385;28;7411;-61
2022/10/22 05:43:38;;;;;;;;;;;;;;;23.94;48.02;94280.06;5066758;28;7103;-61
2022/10/22 05:46:28;;;;;;;;;;;;;;;23.97;47.30;94282.56;5043306;28;7803;-61
2022/10/22 05:49:05;;;;;;;;;;;;;;;24.02;47.31;94281.03;5080004;28;8999;-61
2022/10/22 05:51:35;;;;;;;;;;;;;;;24.05;47.25;94279.31;5078981;28;7305;-60
2022/10/22 05:54:07;;;;;;;;;;;;;;;24.06;47.13;94284.31;5086760;28;9468;-61
2022/10/22 05:56:37;;;;;;;;;;;;;;;24.09;47.30;94286.06;5073375;28;7270;-61
2022/10/22 05:59:05;;;;;;;;;;;;;;;24.11;47.01;94297.28;5066232;28;9135;-61
2022/10/22 06:01:34;;;;;;;;;;;;;;;24.15;47.15;94299.78;5056181;28;7029;-61
2022/10/22 06:04:07;;;;;;;;;;;;;;;24.14;46.85;94304.50;5043490;28;9385;-60
2022/10/22 06:06:53;;;;;;;;;;;;;;;24.17;46.62;94309.00;5063989;28;8736;-61
2022/10/22 06:09:29;;;;;;;;;;;;;;;24.21;47.23;94317.00;5088475;28;7322;-61
2022/10/22 06:12:02;;;;;;;;;;;;;;;24.23;47.11;94320.00;5062636;28;9403;-61
2022/10/22 06:14:41;;;;;;;;;;;;;;;24.23;47.29;94331.72;5071445;28;7212;-61
2022/10/22 06:17:10;;;;;;;;;;;;;;;24.27;47.34;94339.75;5078960;28;9974;-61
2022/10/22 06:19:41;;;;;;;;;;;;;;;24.27;47.47;94326.72;5080468;28;6997;-61
2022/10/22 06:22:09;;;;;;;;;;;;;;;24.31;47.51;94319.00;5070771;28;9059;-61
2022/10/22 06:24:35;;;;;;;;;;;;;;;24.36;47.84;94326.44;5072578;28;8605;-61
2022/10/22 06:27:03;;;;;;;;;;;;;;;24.37;47.59;94305.97;5082603;28;8874;-61
2022/10/22 06:29:35;;;;;;;;;;;;;;;24.46;48.06;94302.19;5078891;28;8921;-61
2022/10/22 06:32:03;;;;;;;;;;;;;;;24.50;48.00;94305.41;5065632;28;7203;-61
2022/10/22 06:34:49;;;;;;;;;;;;;;;24.54;48.51;94309.41;5069812;28;8245;-61
2022/10/22 06:37:24;;;;;;;;;;;;;;;24.59;48.14;94294.16;5070413;28;7256;-61
2022/10/22 06:39:50;;;;;;;;;;;;;;;24.63;48.46;94298.13;5050163;28;7308;-61
2022/10/22 06:42:20;;;;;;;;;;;;;;;24.65;47.88;94292.88;5032051;28;8546;-62
2022/10/22 06:44:59;;;;;;;;;;;;;;;24.69;47.75;94298.09;5066889;28;9013;-61
2022/10/22 06:47:34;;;;;;;;;;;;;;;24.71;47.61;94301.84;5056331;28;7031;-61
2022/10/22 06:50:10;;;;;;;;;;;;;;;24.73;48.02;94306.81;5055960;28;9310;-59
2022/10/22 06:52:49;;;;;;;;;;;;;;;24.77;47.44;94304.59;5055330;28;7036;-60
2022/10/22 06:55:27;;;;;;;;;;;;;;;24.79;47.20;94301.34;5059078;28;7500;-57
2022/10/22 06:58:02;;;;;;;;;;;;;;;24.80;47.65;94308.31;5069215;28;9008;-60
2022/10/22 07:00:36;;;;;;;;;;;;;;;24.81;46.71;94320.84;5065803;28;6984;-60
2022/10/22 07:03:12;;;;;;;;;;;;;;;24.83;46.96;94323.81;5068363;28;7330;-60
2022/10/22 07:05:41;;;;;;;;;;;;;;;24.86;46.87;94328.31;5063663;28;7265;-60
2022/10/22 07:08:35;;;;;;;;;;;;;;;24.90;46.41;94332.31;5061951;28;7302;-60
2022/10/22 07:11:24;;;;;;;;;;;;;;;24.90;46.46;94335.06;5006295;28;7733;-60
2022/10/22 07:14:06;;;;;;;;;;;;;;;24.94;47.19;94343.03;5008710;28;7348;-60
2022/10/22 07:16:32;;;;;;;;;;;;;;;24.96;46.85;94346.03;5010511;28;7256;-60
2022/10/22 07:19:01;;;;;;;;;;;;;;;24.97;46.98;94355.78;4995122;28;8027;-59
2022/10/22 07:21:27;;;;;;;;;;;;;;;24.98;46.52;94357.25;5015843;28;7091;-60
2022/10/22 07:23:55;;;;;;;;;;;;;;;24.99;46.77;94354.00;5017960;28;7422;-60
2022/10/22 07:26:23;;;;;;;;;;;;;;;25.01;46.79;94356.97;5013568;28;6997;-60
2022/10/22 07:28:50;;;;;;;;;;;;;;;25.00;46.93;94360.25;5004073;28;7186;-60
2022/10/22 07:31:19;;;;;;;;;;;;;;;25.00;46.96;94365.75;5004537;28;7174;-60
2022/10/22 07:33:46;;;;;;;;;;;;;;;24.99;46.65;94369.78;4988775;28;7187;-60
2022/10/22 07:36:16;;;;;;;;;;;;;;;24.98;46.64;94366.28;5007821;28;8498;-59
2022/10/22 07:38:59;;;;;;;;;;;;;;;25.00;47.06;94365.75;4988937;28;7060;-60
2022/10/22 07:41:54;;;;;;;;;;;;;;;24.99;46.63;94370.50;4990550;28;6979;-60
2022/10/22 07:44:32;;;;;;;;;;;;;;;25.00;46.58;94371.25;4934319;28;7571;-60
2022/10/22 07:47:11;;;;;;;;;;;;;;;24.98;47.09;94368.28;4939099;28;7239;-60
2022/10/22 07:49:39;;;;;;;;;;;;;;;25.01;46.46;94370.03;5001823;28;7198;-60
2022/10/22 07:52:11;;;;;;;;;;;;;;;25.00;46.36;94371.25;4998504;28;9392;-60
2022/10/22 07:54:56;;;;;;;;;;;;;;;25.01;46.92;94373.50;4996734;28;7875;-61
2022/10/22 07:57:22;;;;;;;;;;;;;;;24.97;46.89;94373.03;5002538;28;7164;-60
2022/10/22 07:59:58;;;;;;;;;;;;;;;24.96;46.12;94373.53;4987004;28;7228;-61
2022/10/22 08:02:25;;;;;;;;;;;;;;;24.95;46.35;94377.53;4990006;28;8929;-60
2022/10/22 08:08:44;;;;;;;;;;;;;;;24.93;47.24;94380.78;4988032;28;7110;-60
2022/10/22 08:11:10;;;;;;;;;;;;;;;24.90;47.32;94395.59;4985144;28;7060;-60
2022/10/22 08:13:49;;;;;;;;;;;;;;;24.90;47.30;94390.06;4989825;28;7135;-60
2022/10/22 08:16:15;;;;;;;;;;;;;;;24.89;47.00;94382.31;5002621;28;7369;-60
2022/10/22 08:18:41;;;;;;;;;;;;;;;24.86;46.92;94377.84;5006522;28;7438;-60
2022/10/22 08:21:10;;;;;;;;;;;;;;;24.83;47.17;94379.59;5048669;28;7254;-60
2022/10/22 08:23:36;;;;;;;;;;;;;;;24.83;47.03;94382.34;5053554;28;7318;-60
2022/10/22 08:26:09;;;;;;;;;;;;;;;24.85;46.95;94393.59;5059310;28;7326;-61
2022/10/22 08:28:36;;;;;;;;;;;;;;;24.82;47.44;94396.59;5047596;28;7228;-60
2022/10/22 08:31:18;;;;;;;;;;;;;;;24.81;47.09;94395.09;5059975;28;7514;-61
2022/10/22 08:33:45;;;;;;;;;;;;;;;24.81;47.48;94395.09;5042019;28;6985;-61
2022/10/22 08:36:15;;;;;;;;;;;;;;;24.82;47.69;94391.09;5078998;28;7955;-60
2022/10/22 08:38:44;;;;;;;;;;;;;;;24.80;47.70;94396.34;5047960;28;7227;-60
2022/10/22 08:41:24;;;;;;;;;;;;;;;24.78;47.21;94393.34;5044307;28;7007;-61
2022/10/22 08:44:17;;;;;;;;;;;;;;;24.79;47.35;94394.88;5035630;28;7257;-60
2022/10/22 08:47:08;;;;;;;;;;;;;;;24.78;47.60;94393.34;5046407;28;7252;-60
2022/10/22 08:49:38;;;;;;;;;;;;;;;24.77;47.66;94391.88;5047451;28;7198;-61
2022/10/22 08:52:20;;;;;;;;;;;;;;;24.76;47.63;94396.63;5047666;28;7572;-60
2022/10/22 08:54:57;;;;;;;;;;;;;;;24.75;48.01;94397.84;5042375;28;9172;-60
2022/10/22 08:57:42;;;;;;;;;;;;;;;24.76;47.26;94402.13;5049966;28;7224;-60
2022/10/22 09:00:46;;;;;;;;;;;;;;;24.77;47.38;94394.63;5038570;28;7424;-60
2022/10/22 09:06:46;;;;;;;;;;;;;;;24.76;47.45;94404.13;5004534;28;9205;-60
2022/10/22 09:09:45;;;;;;;;;;;;;;;24.77;47.59;94408.38;5009835;28;7212;-61
2022/10/22 09:12:16;;;;;;;;;;;;;;;24.75;47.56;94405.38;4911619;29;7452;-61
2022/10/22 09:14:53;;;;;;;;;;;;;;;24.73;47.70;94414.84;4915367;29;9878;-61
2022/10/22 09:17:44;;;;;;;;;;;;;;;24.73;47.83;94414.84;4931962;29;7657;-61
2022/10/22 09:20:27;;;;;;;;;;;;;;;24.73;47.62;94413.34;4916321;29;8214;-61
2022/10/22 09:22:55;;;;;;;;;;;;;;;24.73;47.94;94416.09;4923727;29;8660;-60
2022/10/22 09:25:32;;;;;;;;;;;;;;;24.73;47.32;94414.09;4917951;29;7303;-60
2022/10/22 09:27:58;;;;;;;;;;;;;;;24.70;47.38;94415.13;4925555;29;7176;-60
2022/10/22 09:30:35;;;;;;;;;;;;;;;24.71;47.78;94420.09;4922655;29;6981;-60
2022/10/22 09:33:22;;;;;;;;;;;;;;;24.71;47.25;94416.59;4914684;29;7249;-60
2022/10/22 09:36:07;;;;;;;;;;;;;;;24.70;47.26;94421.38;4922121;28;7291;-59
2022/10/22 09:38:45;;;;;;;;;;;;;;;24.69;48.19;94417.09;4954738;28;9552;-60
2022/10/22 09:41:30;;;;;;;;;;;;;;;24.73;47.72;94423.09;4951413;28;7106;-60
2022/10/22 09:44:21;;;;;;;;;;;;;;;24.74;48.00;94421.09;4942556;28;7472;-61
2022/10/22 09:46:49;;;;;;;;;;;;;;;24.73;47.28;94416.84;4956959;28;8002;-60
2022/10/22 09:49:22;;;;;;;;;;;;;;;24.72;48.26;94412.59;5029445;28;6991;-61
2022/10/22 09:52:26;;;;;;;;;;;;;;;24.72;47.64;94420.84;5065403;28;7019;-61
2022/10/22 09:54:52;;;;;;;;;;;;;;;24.71;48.07;94422.09;5007402;28;6989;-60
2022/10/22 09:57:35;;;;;;;;;;;;;;;24.70;48.29;94426.13;5019967;28;8231;-61
2022/10/22 10:00:01;;;;;;;;;;;;;;;24.72;48.39;94423.59;5031780;28;10305;-60
2022/10/22 10:02:41;;;;;;;;;;;;;;;24.70;47.95;94426.88;5035098;28;6985;-60
2022/10/22 10:05:42;;;;;;;;;;;;;;;24.71;48.50;94424.84;5012676;28;9002;-60
2022/10/22 10:08:14;;;;;;;;;;;;;;;24.71;48.29;94427.59;4993119;28;7105;-60
2022/10/22 10:10:53;;;;;;;;;;;;;;;24.73;48.38;94435.38;4972461;28;9366;-60
2022/10/22 10:13:31;;;;;;;;;;;;;;;24.73;49.13;94430.59;4976635;28;9125;-60
2022/10/22 10:16:40;;;;;;;;;;;;;;;24.73;49.03;94438.84;4974330;28;7255;-60
2022/10/22 10:19:30;;;;;;;;;;;;;;;24.71;48.02;94435.84;4976600;28;7277;-61
2022/10/22 10:22:04;;;;;;;;;;;;;;;24.71;48.24;94447.59;4975830;28;7148;-60
2022/10/22 10:24:54;;;;;;;;;;;;;;;24.72;48.98;94437.38;4988661;28;7053;-60
2022/10/22 10:27:57;;;;;;;;;;;;;;;24.73;48.43;94443.63;4996615;28;8508;-61
2022/10/22 10:30:44;;;;;;;;;;;;;;;24.70;48.57;94443.38;4983913;28;7122;-60
2022/10/22 10:33:31;;;;;;;;;;;;;;;24.73;48.25;94447.84;4966145;28;7283;-60
2022/10/22 10:36:34;;;;;;;;;;;;;;;24.75;49.02;94446.63;4991217;28;7455;-60
2022/10/22 10:39:09;;;;;;;;;;;;;;;24.75;48.54;94444.63;4986206;28;7203;-60
2022/10/22 10:45:11;;;;;;;;;;;;;;;24.77;48.62;94442.13;5043848;28;8458;-60
2022/10/22 10:48:10;;;;;;;;;;;;;;;24.79;48.35;94441.63;5064904;28;7284;-60
2022/10/22 10:50:57;;;;;;;;;;;;;;;24.79;48.28;94450.63;5045609;28;7372;-60
2022/10/22 10:53:38;;;;;;;;;;;;;;;24.82;47.79;94446.09;5047691;28;8999;-60
2022/10/22 10:56:06;;;;;;;;;;;;;;;24.82;48.27;94444.09;5058394;28;7409;-60
2022/10/22 10:58:48;;;;;;;;;;;;;;;24.83;48.11;94445.63;5058566;28;9343;-60
2022/10/22 11:01:36;;;;;;;;;;;;;;;24.86;47.41;94446.63;5047982;28;6986;-60
2022/10/22 11:04:11;;;;;;;;;;;;;;;24.88;47.62;94452.34;5050681;28;7503;-60
2022/10/22 11:06:39;;;;;;;;;;;;;;;24.87;47.35;94451.59;5046815;28;7531;-60
2022/10/22 11:09:26;;;;;;;;;;;;;;;24.87;47.91;94448.84;5055879;28;7226;-60
2022/10/22 11:12:00;;;;;;;;;;;;;;;24.90;47.93;94449.84;5037431;28;7461;-59
2022/10/22 11:14:52;;;;;;;;;;;;;;;24.91;47.98;94451.34;5059778;28;7461;-61
2022/10/22 11:17:23;;;;;;;;;;;;;;;24.93;48.14;94452.34;5066338;28;10203;-60
2022/10/22 11:19:57;;;;;;;;;;;;;;;24.93;47.78;94451.56;5045237;28;7226;-60
2022/10/22 11:22:26;;;;;;;;;;;;;;;24.93;48.04;94449.56;5042113;28;7238;-60
2022/10/22 11:25:00;;;;;;;;;;;;;;;24.94;47.85;94447.59;5056094;28;7270;-59
2022/10/22 11:27:38;;;;;;;;;;;;;;;24.95;47.87;94441.56;5055139;28;9431;-59
2022/10/22 11:30:34;;;;;;;;;;;;;;;24.91;48.17;94445.81;5075628;28;7583;-60
2022/10/22 11:33:11;;;;;;;;;;;;;;;25.02;47.47;94452.06;5053128;28;9848;-59
2022/10/22 11:35:42;;;;;;;;;;;;;;;25.11;48.05;94442.78;5052781;28;9760;-59
2022/10/22 11:38:19;;;;;;;;;;;;;;;25.19;47.65;94438.97;5049391;28;7387;-59
2022/10/22 11:41:10;;;;;;;;;;;;;;;25.32;47.16;94438.41;5068228;28;7415;-60
2022/10/22 11:44:13;;;;;;;;;;;;;;;25.35;47.09;94435.41;5046946;28;6858;-59
2022/10/22 11:46:44;;;;;;;;;;;;;;;25.30;47.73;94421.66;5041183;28;8666;-59
2022/10/22 11:49:23;;;;;;;;;;;;;;;25.28;47.42;94429.69;5048008;28;7495;-60
2022/10/22 11:52:47;;;;;;;;;;;;;;;25.27;47.59;94425.44;5057072;28;7234;-59
2022/10/22 11:56:02;;;;;;;;;;;;;;;25.24;47.68;94423.69;4964079;28;7664;-60
2022/10/22 11:58:35;;;;;;;;;;;;;;;25.26;47.72;94432.19;4966823;28;7239;-60
2022/10/22 12:01:10;;;;;;;;;;;;;;;25.26;47.35;94416.44;4968506;28;7406;-60
2022/10/22 12:04:00;;;;;;;;;;;;;;;25.26;47.88;94407.41;4971049;28;7321;-60
2022/10/22 12:06:52;;;;;;;;;;;;;;;25.27;47.85;94415.16;4963158;28;7201;-60
2022/10/22 12:09:39;;;;;;;;;;;;;;;25.25;46.84;94420.44;4966617;28;7525;-60
2022/10/22 12:12:20;;;;;;;;;;;;;;;25.24;47.41;94409.94;4970386;28;7594;-60
2022/10/22 12:14:59;;;;;;;;;;;;;;;25.19;47.32;94413.44;4955145;28;9455;-60
2022/10/22 12:17:28;;;;;;;;;;;;;;;25.19;47.61;94414.22;4972195;28;7700;-59
2022/10/22 12:20:13;;;;;;;;;;;;;;;25.17;47.50;94419.47;4949407;28;6992;-60
2022/10/22 12:22:39;;;;;;;;;;;;;;;25.15;47.25;94421.22;4942399;28;7363;-60
2022/10/22 12:25:17;;;;;;;;;;;;;;;25.16;47.59;94423.50;4971198;28;6980;-60
2022/10/22 12:27:49;;;;;;;;;;;;;;;25.21;47.37;94424.69;5060932;28;6984;-60
2022/10/22 12:30:33;;;;;;;;;;;;;;;25.24;47.56;94415.44;5074650;28;7404;-60
2022/10/22 12:33:19;;;;;;;;;;;;;;;25.27;46.94;94425.44;5051670;28;7234;-60
2022/10/22 12:36:02;;;;;;;;;;;;;;;25.29;47.38;94420.91;5049500;28;7069;-60
2022/10/22 12:38:28;;;;;;;;;;;;;;;25.33;46.65;94423.41;5046026;28;7208;-60
2022/10/22 12:41:00;;;;;;;;;;;;;;;25.32;47.27;94422.66;5057550;28;7314;-61
2022/10/22 12:43:32;;;;;;;;;;;;;;;25.33;46.55;94426.16;5040198;28;7071;-60
2022/10/22 12:46:27;;;;;;;;;;;;;;;25.37;46.57;94432.16;5046075;28;7183;-60
2022/10/22 12:49:00;;;;;;;;;;;;;;;25.36;46.95;94419.63;5040099;28;7301;-60
2022/10/22 12:51:27;;;;;;;;;;;;;;;25.41;46.43;94427.13;5061421;28;7171;-60
2022/10/22 12:54:07;;;;;;;;;;;;;;;25.40;47.23;94420.84;5044177;28;7090;-60
2022/10/22 12:56:36;;;;;;;;;;;;;;;25.41;46.47;94416.09;5049525;28;6997;-60
2022/10/22 12:59:17;;;;;;;;;;;;;;;25.47;46.71;94414.09;5034302;28;7083;-60
2022/10/22 13:01:43;;;;;;;;;;;;;;;25.48;47.19;94412.09;5046403;28;7235;-60
2022/10/22 13:04:17;;;;;;;;;;;;;;;25.48;46.17;94404.56;5052701;28;9123;-60
2022/10/22 13:06:48;;;;;;;;;;;;;;;25.50;46.10;94406.81;5068810;28;7372;-60
2022/10/22 13:09:26;;;;;;;;;;;;;;;25.54;45.62;94407.28;5053992;28;7380;-60
2022/10/22 13:12:15;;;;;;;;;;;;;;;25.56;46.50;94415.78;5050554;28;7076;-60
2022/10/22 13:14:45;;;;;;;;;;;;;;;25.56;46.42;94405.53;5067289;28;8590;-60
2022/10/22 13:17:19;;;;;;;;;;;;;;;25.61;45.82;94412.25;5062128;28;9100;-61
2022/10/22 13:19:57;;;;;;;;;;;;;;;25.62;46.67;94403.47;5067346;28;7439;-60
2022/10/22 13:22:41;;;;;;;;;;;;;;;25.65;45.97;94413.47;5058818;28;8979;-60
2022/10/22 13:25:12;;;;;;;;;;;;;;;25.67;45.70;94402.69;5043886;28;7066;-60
2022/10/22 13:27:52;;;;;;;;;;;;;;;25.68;45.70;94398.69;5044099;28;7217;-60
2022/10/22 13:30:23;;;;;;;;;;;;;;;25.71;45.92;94396.94;5070745;28;7308;-60
2022/10/22 13:32:54;;;;;;;;;;;;;;;25.74;45.81;94390.38;5054053;28;7220;-60
2022/10/22 13:35:32;;;;;;;;;;;;;;;25.75;45.54;94395.38;5053832;28;6973;-60
2022/10/22 13:38:19;;;;;;;;;;;;;;;25.78;45.70;94397.13;5052852;28;8175;-60
2022/10/22 13:40:48;;;;;;;;;;;;;;;25.78;45.00;94390.84;5071632;28;7334;-60
2022/10/22 13:43:29;;;;;;;;;;;;;;;25.78;45.27;94397.13;5071810;28;7311;-60
2022/10/22 13:46:01;;;;;;;;;;;;;;;25.82;45.10;94388.56;5053569;28;7005;-60
2022/10/22 13:48:32;;;;;;;;;;;;;;;25.83;43.81;94390.84;5053834;28;7292;-60
2022/10/22 13:51:14;;;;;;;;;;;;;;;25.85;44.61;94388.31;5057795;28;8222;-60
2022/10/22 13:53:55;;;;;;;;;;;;;;;25.87;44.35;94391.28;5059850;28;7902;-59
2022/10/22 13:56:21;;;;;;;;;;;;;;;25.90;44.03;94384.03;5051130;28;9415;-59
2022/10/22 13:58:47;;;;;;;;;;;;;;;25.90;43.79;94379.22;5041819;28;7120;-59
2022/10/22 14:01:27;;;;;;;;;;;;;;;25.94;43.92;94385.25;5067221;28;7204;-59
2022/10/22 14:04:04;;;;;;;;;;;;;;;25.96;43.55;94388.22;5067615;28;8520;-59